Buoy 41936

sailwx.info

Track history (hours):
 
Tides and Currents Weather Stations Pressure Air Temp Water Temp Dewpoint Dewpoint Depression Visibility Wind Speed Wind Dir Waves Ship Positions

Drifting buoy 41936

Last reported at 2016-Sep-26 01:00 UTC. Time now 2016-Sep-26 05:24 UTC.
Position N 40°14' W 041°20'.

Barometer 1005.3 mb

Date/timePositionNaut miles runAvg speedWind from/ knotsBaromVisibWave heightAir tempDewpointWater temp
2016-Sep-26 01:00N 40°14' W 041°20'2 1.8 1005.3
2016-Sep-26 00:00N 40°14' W 041°23'1 0.5 1005.1
2016-Sep-25 22:00N 40°15' W 041°23'5 2.7 1003.2
2016-Sep-25 20:00N 40°12' W 041°28'1 0.8 999.8
2016-Sep-25 19:00N 40°12' W 041°29'0 0.0 1000.3
2016-Sep-25 18:00N 40°12' W 041°29'5 1.6 1001.6
2016-Sep-25 15:00N 40°07' W 041°29'0 0.0 1006.6
2016-Sep-25 13:00N 40°07' W 041°29'0 0.2 1008.6
2016-Sep-25 11:00N 40°07' W 041°28'0 0.1 1009.6
2016-Sep-25 09:00N 40°07' W 041°28'0 0.1 1010.7
2016-Sep-25 08:00N 40°07' W 041°28'3 1.0 1010.6
2016-Sep-25 05:00N 40°07' W 041°32'1 0.2 1011.7
2016-Sep-25 00:00N 40°06' W 041°33'1 1.1 1013.8
2016-Sep-24 23:00N 40°05' W 041°33'0 0.0 1013.3
2016-Sep-24 22:00N 40°05' W 041°33'1 0.6 1013.3
2016-Sep-24 21:00N 40°05' W 041°32'1 0.4 1013.0
2016-Sep-24 19:00N 40°05' W 041°32'0 0.2 1013.4
2016-Sep-24 17:00N 40°04' W 041°33'2 0.5 1013.9
2016-Sep-24 13:00N 40°03' W 041°31'1 0.5 1016.6
2016-Sep-24 11:00N 40°02' W 041°30'0 0.1 1017.8
2016-Sep-24 10:00N 40°02' W 041°30'2 0.8 1018.3
2016-Sep-24 08:00N 40°01' W 041°29'1 1.5 1019.2
2016-Sep-24 07:00N 40°00' W 041°27'4 2.2 1019.3
2016-Sep-24 05:00N 39°59' W 041°21'0 0.0 1019.8
2016-Sep-24 01:00N 39°59' W 041°21'2 0.7 1021.1
2016-Sep-23 22:00N 39°60' W 041°19'2 1.0 1021.2
2016-Sep-23 20:00N 40°01' W 041°17'0 0.1 1020.2
2016-Sep-23 19:00N 40°01' W 041°17'3 1.5 1019.8
2016-Sep-23 17:00N 40°03' W 041°15'0 0.1 1019.6
2016-Sep-23 15:00N 40°03' W 041°15'1 0.3 1019.6
2016-Sep-23 12:00N 40°04' W 041°15'1 0.8 1019.4
2016-Sep-23 11:00N 40°04' W 041°14'1 1.3 1018.9
2016-Sep-23 10:00N 40°05' W 041°13'3 0.8 1018.6
2016-Sep-23 07:00N 40°06' W 041°10'7 6.6 1016.2
2016-Sep-23 06:00N 40°11' W 041°04'0 0.0 1015.5
2016-Sep-23 05:00N 40°11' W 041°04'2 0.3 1014.8
2016-Sep-22 23:00N 40°13' W 041°02'2 0.4 1013.2
2016-Sep-22 18:00N 40°15' W 041°03'0 0.2 1013.0
2016-Sep-22 16:00N 40°15' W 041°04'0 0.3 1013.5
2016-Sep-22 15:00N 40°15' W 041°03'1 0.2 1014.1
2016-Sep-22 12:00N 40°15' W 041°03'0 0.1 1014.9
2016-Sep-22 10:00N 40°15' W 041°02'0 0.0 1014.9
2016-Sep-22 09:00N 40°15' W 041°02'2 2.2 1015.0
2016-Sep-22 08:00N 40°15' W 040°60'4 2.1 1014.6
2016-Sep-22 06:00N 40°20' W 040°59'0 0.0 1015.5
2016-Sep-22 04:00N 40°20' W 040°59'0 0.0 1016.5
2016-Sep-22 01:00N 40°20' W 040°59'1 1.0 1017.8
2016-Sep-22 00:00N 40°21' W 040°58'0 0.3 1018.0
2016-Sep-21 23:00N 40°21' W 040°59'1 0.6 1018.2
2016-Sep-21 22:00N 40°21' W 040°60'1 0.6 1018.2
2016-Sep-21 21:00N 40°20' W 040°59'0 0.2 1017.7
2016-Sep-21 20:00N 40°20' W 040°59'1 0.6 1017.9
2016-Sep-21 19:00N 40°20' W 040°59'1 0.8 1017.8
2016-Sep-21 18:00N 40°19' W 040°58'5 1.2 1018.2
2016-Sep-21 14:00N 40°17' W 040°53'1 0.6 1019.9
2016-Sep-21 12:00N 40°17' W 040°51'1 0.8 1020.8
2016-Sep-21 11:00N 40°18' W 040°50'1 1.2 1021.1
2016-Sep-21 10:00N 40°18' W 040°49'1 0.6 1020.5
2016-Sep-21 09:00N 40°19' W 040°48'1 0.9 1020.6
2016-Sep-21 08:00N 40°19' W 040°48'0 0.4 1020.6
2016-Sep-21 07:00N 40°19' W 040°47'2 2.0 1020.9
2016-Sep-21 06:00N 40°21' W 040°48'1 0.3 1021.1
2016-Sep-21 04:00N 40°22' W 040°48'0 0.2 1021.6
2016-Sep-21 01:00N 40°22' W 040°48'1 0.5 1022.5
2016-Sep-21 00:00N 40°22' W 040°47'1 0.4 1022.4
2016-Sep-20 22:00N 40°22' W 040°46'1 0.7 1022.4
2016-Sep-20 21:00N 40°22' W 040°46'2 1.9 1022.2
2016-Sep-20 20:00N 40°23' W 040°43'1 0.7 1021.7
2016-Sep-20 19:00N 40°23' W 040°42'2 1.5 1021.7
2016-Sep-20 18:00N 40°24' W 040°41'2 1.0 1021.7
2016-Sep-20 16:00N 40°25' W 040°39'5 1.8 1022.1
2016-Sep-20 13:00N 40°30' W 040°35'1 1.2 1022.4
2016-Sep-20 12:00N 40°30' W 040°37'2 2.5 1022.7
2016-Sep-20 11:00N 40°32' W 040°35'1 1.0 1022.7
2016-Sep-20 10:00N 40°33' W 040°35'2 1.6 1022.5
2016-Sep-20 09:00N 40°35' W 040°35'1 1.3 1022.6
2016-Sep-20 08:00N 40°35' W 040°37'0 0.2 1022.2
2016-Sep-20 06:00N 40°35' W 040°37'3 0.5 1022.2
2016-Sep-20 00:00N 40°34' W 040°34'2 2.1 1024.4
2016-Sep-19 23:00N 40°35' W 040°31'0 0.3 1025.0
2016-Sep-19 22:00N 40°35' W 040°31'1 1.2 1025.3
2016-Sep-19 21:00N 40°36' W 040°30'2 1.8 1025.2
2016-Sep-19 20:00N 40°38' W 040°30'0 0.0 1025.1
2016-Sep-19 19:00N 40°38' W 040°30'1 0.9 1025.4
2016-Sep-19 18:00N 40°39' W 040°30'0 0.0 1025.6
2016-Sep-19 17:00N 40°39' W 040°30'0 0.1 1025.6
2016-Sep-19 16:00N 40°39' W 040°30'1 0.3 1026.3
2016-Sep-19 13:00N 40°40' W 040°30'1 1.2 1027.9
2016-Sep-19 12:00N 40°40' W 040°32'0 0.1 1028.3
2016-Sep-19 11:00N 40°40' W 040°32'0 0.1 1028.4
2016-Sep-19 09:00N 40°40' W 040°31'3 2.9 1028.0
2016-Sep-19 08:00N 40°39' W 040°28'2 1.1 1028.1
2016-Sep-19 06:00N 40°39' W 040°25'6 5.5 1028.4
2016-Sep-19 05:00N 40°42' W 040°19'0 0.0 1028.5
2016-Sep-19 04:00N 40°42' W 040°19'2 0.5 1029.0
2016-Sep-18 23:00N 40°44' W 040°19'1 1.1 1030.4
2016-Sep-18 22:00N 40°45' W 040°18'0 0.2 1030.3
2016-Sep-18 21:00N 40°45' W 040°18'2 0.5 1029.9
2016-Sep-18 18:00N 40°46' W 040°18'1 0.2 1029.9
2016-Sep-18 13:00N 40°46' W 040°17'2 1.7 1031.0
2016-Sep-18 12:00N 40°45' W 040°15'1 1.4 1030.8
2016-Sep-18 11:00N 40°45' W 040°13'2 2.3 1030.8
2016-Sep-18 10:00N 40°46' W 040°10'1 0.6 1030.5
2016-Sep-18 09:00N 40°46' W 040°09'3 2.5 1030.5
2016-Sep-18 08:00N 40°48' W 040°07'3 1.4 1030.2
2016-Sep-18 06:00N 40°50' W 040°05'6 1.1 1029.9
2016-Sep-18 00:00N 40°57' W 040°06'2 0.6 1030.9
2016-Sep-17 21:00N 40°57' W 040°08'0 0.1 1029.9
2016-Sep-17 20:00N 40°57' W 040°08'0 0.1 1029.4
2016-Sep-17 19:00N 40°57' W 040°08'1 1.4 1028.9
2016-Sep-17 18:00N 40°58' W 040°06'0 0.0 1028.7
2016-Sep-17 17:00N 40°58' W 040°06'0 0.1 1028.8
2016-Sep-17 16:00N 40°58' W 040°06'3 1.4 1029.0
2016-Sep-17 14:00N 40°59' W 040°03'4 2.0 1028.7
2016-Sep-17 12:00N 41°03' W 040°01'3 2.8 1028.5
2016-Sep-17 11:00N 41°06' W 039°60'0 0.2 1028.2
2016-Sep-17 09:00N 41°06' W 039°59'3 2.9 1026.2
2016-Sep-17 08:00N 41°08' W 040°01'4 3.8 1025.2
2016-Sep-17 07:00N 41°12' W 040°03'0 0.0 1024.7
2016-Sep-17 06:00N 41°12' W 040°03'5 5.1 1024.3
2016-Sep-17 05:00N 41°13' W 040°10'5 4.6 1023.8
2016-Sep-17 04:00N 41°12' W 040°04'5 1.5 1023.4
2016-Sep-17 01:00N 41°13' W 040°10'1 1.0 1021.9
2016-Sep-17 00:00N 41°14' W 040°10'1 0.4 1021.3
2016-Sep-16 22:00N 41°15' W 040°11'1 1.3 1020.0
2016-Sep-16 21:00N 41°16' W 040°10'1 0.8 1018.5
2016-Sep-16 20:00N 41°17' W 040°11'0 0.0 1017.8
2016-Sep-16 19:00N 41°17' W 040°11'5 2.6 1016.7
2016-Sep-16 17:00N 41°22' W 040°13'0 0.0 1014.9
2016-Sep-16 16:00N 41°22' W 040°13'0 0.1 1014.4
2016-Sep-16 15:00N 41°22' W 040°14'6 5.8 1013.3
2016-Sep-16 14:00N 41°26' W 040°19'1 0.6 1012.8
2016-Sep-16 12:00N 41°27' W 040°20'7 2.4 1011.4
2016-Sep-16 09:00N 41°28' W 040°30'2 1.6 1008.2
2016-Sep-16 08:00N 41°28' W 040°32'0 0.5 1006.6
2016-Sep-16 07:00N 41°27' W 040°32'6 2.9 1005.4
2016-Sep-16 05:00N 41°24' W 040°38'0 0.0 1006.3
2016-Sep-16 01:00N 41°24' W 040°38'   1012.5
Track history (hours):
 
Tides and Currents Weather Stations Pressure Air Temp Water Temp Dewpoint Dewpoint Depression Visibility Wind Speed Wind Dir Waves Ship Positions

Drifting buoy 41936

Last reported at 2016-Sep-26 01:00 UTC. Time now 2016-Sep-26 05:24 UTC.
Position N 40°14' W 041°20'.

Barometer 1005.3 mb

Date/timePositionNaut miles runAvg speedWind from/ knotsBaromVisibWave heightAir tempDewpointWater temp
2016-Sep-26 01:00N 40°14' W 041°20'2 1.8 1005.3
2016-Sep-26 00:00N 40°14' W 041°23'1 0.5 1005.1
2016-Sep-25 22:00N 40°15' W 041°23'5 2.7 1003.2
2016-Sep-25 20:00N 40°12' W 041°28'1 0.8 999.8
2016-Sep-25 19:00N 40°12' W 041°29'0 0.0 1000.3
2016-Sep-25 18:00N 40°12' W 041°29'5 1.6 1001.6
2016-Sep-25 15:00N 40°07' W 041°29'0 0.0 1006.6
2016-Sep-25 13:00N 40°07' W 041°29'0 0.2 1008.6
2016-Sep-25 11:00N 40°07' W 041°28'0 0.1 1009.6
2016-Sep-25 09:00N 40°07' W 041°28'0 0.1 1010.7
2016-Sep-25 08:00N 40°07' W 041°28'3 1.0 1010.6
2016-Sep-25 05:00N 40°07' W 041°32'1 0.2 1011.7
2016-Sep-25 00:00N 40°06' W 041°33'1 1.1 1013.8
2016-Sep-24 23:00N 40°05' W 041°33'0 0.0 1013.3
2016-Sep-24 22:00N 40°05' W 041°33'1 0.6 1013.3
2016-Sep-24 21:00N 40°05' W 041°32'1 0.4 1013.0
2016-Sep-24 19:00N 40°05' W 041°32'0 0.2 1013.4
2016-Sep-24 17:00N 40°04' W 041°33'2 0.5 1013.9
2016-Sep-24 13:00N 40°03' W 041°31'1 0.5 1016.6
2016-Sep-24 11:00N 40°02' W 041°30'0 0.1 1017.8
2016-Sep-24 10:00N 40°02' W 041°30'2 0.8 1018.3
2016-Sep-24 08:00N 40°01' W 041°29'1 1.5 1019.2
2016-Sep-24 07:00N 40°00' W 041°27'4 2.2 1019.3
2016-Sep-24 05:00N 39°59' W 041°21'0 0.0 1019.8
2016-Sep-24 01:00N 39°59' W 041°21'2 0.7 1021.1
2016-Sep-23 22:00N 39°60' W 041°19'2 1.0 1021.2
2016-Sep-23 20:00N 40°01' W 041°17'0 0.1 1020.2
2016-Sep-23 19:00N 40°01' W 041°17'3 1.5 1019.8
2016-Sep-23 17:00N 40°03' W 041°15'0 0.1 1019.6
2016-Sep-23 15:00N 40°03' W 041°15'1 0.3 1019.6
2016-Sep-23 12:00N 40°04' W 041°15'1 0.8 1019.4
2016-Sep-23 11:00N 40°04' W 041°14'1 1.3 1018.9
2016-Sep-23 10:00N 40°05' W 041°13'3 0.8 1018.6
2016-Sep-23 07:00N 40°06' W 041°10'7 6.6 1016.2
2016-Sep-23 06:00N 40°11' W 041°04'0 0.0 1015.5
2016-Sep-23 05:00N 40°11' W 041°04'2 0.3 1014.8
2016-Sep-22 23:00N 40°13' W 041°02'2 0.4 1013.2
2016-Sep-22 18:00N 40°15' W 041°03'0 0.2 1013.0
2016-Sep-22 16:00N 40°15' W 041°04'0 0.3 1013.5
2016-Sep-22 15:00N 40°15' W 041°03'1 0.2 1014.1
2016-Sep-22 12:00N 40°15' W 041°03'0 0.1 1014.9
2016-Sep-22 10:00N 40°15' W 041°02'0 0.0 1014.9
2016-Sep-22 09:00N 40°15' W 041°02'2 2.2 1015.0
2016-Sep-22 08:00N 40°15' W 040°60'4 2.1 1014.6
2016-Sep-22 06:00N 40°20' W 040°59'0 0.0 1015.5
2016-Sep-22 04:00N 40°20' W 040°59'0 0.0 1016.5
2016-Sep-22 01:00N 40°20' W 040°59'1 1.0 1017.8
2016-Sep-22 00:00N 40°21' W 040°58'0 0.3 1018.0
2016-Sep-21 23:00N 40°21' W 040°59'1 0.6 1018.2
2016-Sep-21 22:00N 40°21' W 040°60'1 0.6 1018.2
2016-Sep-21 21:00N 40°20' W 040°59'0 0.2 1017.7
2016-Sep-21 20:00N 40°20' W 040°59'1 0.6 1017.9
2016-Sep-21 19:00N 40°20' W 040°59'1 0.8 1017.8
2016-Sep-21 18:00N 40°19' W 040°58'5 1.2 1018.2
2016-Sep-21 14:00N 40°17' W 040°53'1 0.6 1019.9
2016-Sep-21 12:00N 40°17' W 040°51'1 0.8 1020.8
2016-Sep-21 11:00N 40°18' W 040°50'1 1.2 1021.1
2016-Sep-21 10:00N 40°18' W 040°49'1 0.6 1020.5
2016-Sep-21 09:00N 40°19' W 040°48'1 0.9 1020.6
2016-Sep-21 08:00N 40°19' W 040°48'0 0.4 1020.6
2016-Sep-21 07:00N 40°19' W 040°47'2 2.0 1020.9
2016-Sep-21 06:00N 40°21' W 040°48'1 0.3 1021.1
2016-Sep-21 04:00N 40°22' W 040°48'0 0.2 1021.6
2016-Sep-21 01:00N 40°22' W 040°48'1 0.5 1022.5
2016-Sep-21 00:00N 40°22' W 040°47'1 0.4 1022.4
2016-Sep-20 22:00N 40°22' W 040°46'1 0.7 1022.4
2016-Sep-20 21:00N 40°22' W 040°46'2 1.9 1022.2
2016-Sep-20 20:00N 40°23' W 040°43'1 0.7 1021.7
2016-Sep-20 19:00N 40°23' W 040°42'2 1.5 1021.7
2016-Sep-20 18:00N 40°24' W 040°41'2 1.0 1021.7
2016-Sep-20 16:00N 40°25' W 040°39'5 1.8 1022.1
2016-Sep-20 13:00N 40°30' W 040°35'1 1.2 1022.4
2016-Sep-20 12:00N 40°30' W 040°37'2 2.5 1022.7
2016-Sep-20 11:00N 40°32' W 040°35'1 1.0 1022.7
2016-Sep-20 10:00N 40°33' W 040°35'2 1.6 1022.5
2016-Sep-20 09:00N 40°35' W 040°35'1 1.3 1022.6
2016-Sep-20 08:00N 40°35' W 040°37'0 0.2 1022.2
2016-Sep-20 06:00N 40°35' W 040°37'3 0.5 1022.2
2016-Sep-20 00:00N 40°34' W 040°34'2 2.1 1024.4
2016-Sep-19 23:00N 40°35' W 040°31'0 0.3 1025.0
2016-Sep-19 22:00N 40°35' W 040°31'1 1.2 1025.3
2016-Sep-19 21:00N 40°36' W 040°30'2 1.8 1025.2
2016-Sep-19 20:00N 40°38' W 040°30'0 0.0 1025.1
2016-Sep-19 19:00N 40°38' W 040°30'1 0.9 1025.4
2016-Sep-19 18:00N 40°39' W 040°30'0 0.0 1025.6
2016-Sep-19 17:00N 40°39' W 040°30'0 0.1 1025.6
2016-Sep-19 16:00N 40°39' W 040°30'1 0.3 1026.3
2016-Sep-19 13:00N 40°40' W 040°30'1 1.2 1027.9
2016-Sep-19 12:00N 40°40' W 040°32'0 0.1 1028.3
2016-Sep-19 11:00N 40°40' W 040°32'0 0.1 1028.4
2016-Sep-19 09:00N 40°40' W 040°31'3 2.9 1028.0
2016-Sep-19 08:00N 40°39' W 040°28'2 1.1 1028.1
2016-Sep-19 06:00N 40°39' W 040°25'6 5.5 1028.4
2016-Sep-19 05:00N 40°42' W 040°19'0 0.0 1028.5
2016-Sep-19 04:00N 40°42' W 040°19'2 0.5 1029.0
2016-Sep-18 23:00N 40°44' W 040°19'1 1.1 1030.4
2016-Sep-18 22:00N 40°45' W 040°18'0 0.2 1030.3
2016-Sep-18 21:00N 40°45' W 040°18'2 0.5 1029.9
2016-Sep-18 18:00N 40°46' W 040°18'1 0.2 1029.9
2016-Sep-18 13:00N 40°46' W 040°17'2 1.7 1031.0
2016-Sep-18 12:00N 40°45' W 040°15'1 1.4 1030.8
2016-Sep-18 11:00N 40°45' W 040°13'2 2.3 1030.8
2016-Sep-18 10:00N 40°46' W 040°10'1 0.6 1030.5
2016-Sep-18 09:00N 40°46' W 040°09'3 2.5 1030.5
2016-Sep-18 08:00N 40°48' W 040°07'3 1.4 1030.2
2016-Sep-18 06:00N 40°50' W 040°05'6 1.1 1029.9
2016-Sep-18 00:00N 40°57' W 040°06'2 0.6 1030.9
2016-Sep-17 21:00N 40°57' W 040°08'0 0.1 1029.9
2016-Sep-17 20:00N 40°57' W 040°08'0 0.1 1029.4
2016-Sep-17 19:00N 40°57' W 040°08'1 1.4 1028.9
2016-Sep-17 18:00N 40°58' W 040°06'0 0.0 1028.7
2016-Sep-17 17:00N 40°58' W 040°06'0 0.1 1028.8
2016-Sep-17 16:00N 40°58' W 040°06'3 1.4 1029.0
2016-Sep-17 14:00N 40°59' W 040°03'4 2.0 1028.7
2016-Sep-17 12:00N 41°03' W 040°01'3 2.8 1028.5
2016-Sep-17 11:00N 41°06' W 039°60'0 0.2 1028.2
2016-Sep-17 09:00N 41°06' W 039°59'3 2.9 1026.2
2016-Sep-17 08:00N 41°08' W 040°01'4 3.8 1025.2
2016-Sep-17 07:00N 41°12' W 040°03'0 0.0 1024.7
2016-Sep-17 06:00N 41°12' W 040°03'5 5.1 1024.3
2016-Sep-17 05:00N 41°13' W 040°10'5 4.6 1023.8
2016-Sep-17 04:00N 41°12' W 040°04'5 1.5 1023.4
2016-Sep-17 01:00N 41°13' W 040°10'1 1.0 1021.9
2016-Sep-17 00:00N 41°14' W 040°10'1 0.4 1021.3
2016-Sep-16 22:00N 41°15' W 040°11'1 1.3 1020.0
2016-Sep-16 21:00N 41°16' W 040°10'1 0.8 1018.5
2016-Sep-16 20:00N 41°17' W 040°11'0 0.0 1017.8
2016-Sep-16 19:00N 41°17' W 040°11'5 2.6 1016.7
2016-Sep-16 17:00N 41°22' W 040°13'0 0.0 1014.9
2016-Sep-16 16:00N 41°22' W 040°13'0 0.1 1014.4
2016-Sep-16 15:00N 41°22' W 040°14'6 5.8 1013.3
2016-Sep-16 14:00N 41°26' W 040°19'1 0.6 1012.8
2016-Sep-16 12:00N 41°27' W 040°20'7 2.4 1011.4
2016-Sep-16 09:00N 41°28' W 040°30'2 1.6 1008.2
2016-Sep-16 08:00N 41°28' W 040°32'0 0.5 1006.6
2016-Sep-16 07:00N 41°27' W 040°32'6 2.9 1005.4
2016-Sep-16 05:00N 41°24' W 040°38'0 0.0 1006.3
2016-Sep-16 01:00N 41°24' W 040°38'   1012.5

Dump ship's entire track history